sensor_id;sensor_type;location;lat;lon;timestamp;pressure;altitude;pressure_sealevel;temperature
76901;BMP280;65859;43.020;25.096;2023-05-10T00:00:10;99731.13;;;11.17
76901;BMP280;65859;43.020;25.096;2023-05-10T00:02:36;99724.22;;;10.90
76901;BMP280;65859;43.020;25.096;2023-05-10T00:05:05;99720.78;;;10.98
76901;BMP280;65859;43.020;25.096;2023-05-10T00:07:31;99723.81;;;10.97
76901;BMP280;65859;43.020;25.096;2023-05-10T00:09:57;99713.94;;;11.06
76901;BMP280;65859;43.020;25.096;2023-05-10T00:12:24;99718.03;;;11.12
76901;BMP280;65859;43.020;25.096;2023-05-10T00:14:50;99719.91;;;11.12
76901;BMP280;65859;43.020;25.096;2023-05-10T00:17:16;99719.28;;;10.97
76901;BMP280;65859;43.020;25.096;2023-05-10T00:19:43;99712.84;;;11.07
76901;BMP280;65859;43.020;25.096;2023-05-10T00:22:09;99713.16;;;11.05
76901;BMP280;65859;43.020;25.096;2023-05-10T00:24:36;99720.03;;;11.15
76901;BMP280;65859;43.020;25.096;2023-05-10T00:27:02;99711.13;;;11.02
76901;BMP280;65859;43.020;25.096;2023-05-10T00:29:30;99704.41;;;11.22
76901;BMP280;65859;43.020;25.096;2023-05-10T00:31:57;99708.28;;;10.99
76901;BMP280;65859;43.020;25.096;2023-05-10T00:34:23;99696.00;;;11.20
76901;BMP280;65859;43.020;25.096;2023-05-10T00:36:52;99698.19;;;11.18
76901;BMP280;65859;43.020;25.096;2023-05-10T00:39:18;99696.91;;;11.24
76901;BMP280;65859;43.020;25.096;2023-05-10T00:41:44;99698.34;;;11.13
76901;BMP280;65859;43.020;25.096;2023-05-10T00:44:11;99697.56;;;11.13
76901;BMP280;65859;43.020;25.096;2023-05-10T00:46:37;99698.47;;;11.17
76901;BMP280;65859;43.020;25.096;2023-05-10T00:49:03;99692.88;;;11.18
76901;BMP280;65859;43.020;25.096;2023-05-10T00:51:30;99696.91;;;11.07
76901;BMP280;65859;43.020;25.096;2023-05-10T00:53:57;99693.66;;;11.19
76901;BMP280;65859;43.020;25.096;2023-05-10T00:56:25;99690.19;;;11.09
76901;BMP280;65859;43.020;25.096;2023-05-10T00:58:51;99696.91;;;11.07
76901;BMP280;65859;43.020;25.096;2023-05-10T01:01:18;99693.31;;;11.03
76901;BMP280;65859;43.020;25.096;2023-05-10T01:03:45;99680.66;;;11.08
76901;BMP280;65859;43.020;25.096;2023-05-10T01:06:11;99692.53;;;10.94
76901;BMP280;65859;43.020;25.096;2023-05-10T01:08:41;99682.53;;;10.99
76901;BMP280;65859;43.020;25.096;2023-05-10T01:11:08;99680.34;;;10.93
76901;BMP280;65859;43.020;25.096;2023-05-10T01:13:36;99676.75;;;10.80
76901;BMP280;65859;43.020;25.096;2023-05-10T01:16:04;99675.97;;;10.88
76901;BMP280;65859;43.020;25.096;2023-05-10T01:18:35;99684.75;;;10.97
76901;BMP280;65859;43.020;25.096;2023-05-10T01:34:37;99680.03;;;10.77
76901;BMP280;65859;43.020;25.096;2023-05-10T01:37:13;99676.78;;;10.89
76901;BMP280;65859;43.020;25.096;2023-05-10T01:42:20;99661.78;;;10.93
76901;BMP280;65859;43.020;25.096;2023-05-10T01:47:23;99668.16;;;10.74
76901;BMP280;65859;43.020;25.096;2023-05-10T01:49:56;99649.06;;;10.46
76901;BMP280;65859;43.020;25.096;2023-05-10T01:52:30;99664.81;;;10.43
76901;BMP280;65859;43.020;25.096;2023-05-10T01:55:14;99656.41;;;10.58
76901;BMP280;65859;43.020;25.096;2023-05-10T01:57:44;99665.47;;;10.66
76901;BMP280;65859;43.020;25.096;2023-05-10T02:00:13;99660.16;;;10.66
76901;BMP280;65859;43.020;25.096;2023-05-10T02:02:44;99664.81;;;10.51
76901;BMP280;65859;43.020;25.096;2023-05-10T02:05:13;99680.47;;;10.53
76901;BMP280;65859;43.020;25.096;2023-05-10T02:07:39;99660.13;;;10.22
76901;BMP280;65859;43.020;25.096;2023-05-10T02:10:09;99661.06;;;10.35
76901;BMP280;65859;43.020;25.096;2023-05-10T02:12:44;99665.69;;;10.21
76901;BMP280;65859;43.020;25.096;2023-05-10T02:15:15;99662.09;;;10.25
76901;BMP280;65859;43.020;25.096;2023-05-10T02:17:43;99668.84;;;10.23
76901;BMP280;65859;43.020;25.096;2023-05-10T02:20:13;99664.31;;;10.23
76901;BMP280;65859;43.020;25.096;2023-05-10T02:22:40;99674.91;;;10.32
76901;BMP280;65859;43.020;25.096;2023-05-10T02:25:08;99663.06;;;10.30
76901;BMP280;65859;43.020;25.096;2023-05-10T02:27:37;99665.91;;;10.42
76901;BMP280;65859;43.020;25.096;2023-05-10T02:30:05;99666.75;;;10.11
76901;BMP280;65859;43.020;25.096;2023-05-10T02:32:33;99674.84;;;10.06
76901;BMP280;65859;43.020;25.096;2023-05-10T02:35:01;99671.25;;;10.11
76901;BMP280;65859;43.020;25.096;2023-05-10T02:37:29;99670.75;;;10.31
76901;BMP280;65859;43.020;25.096;2023-05-10T02:39:56;99663.38;;;10.28
76901;BMP280;65859;43.020;25.096;2023-05-10T02:42:26;99666.22;;;10.32
76901;BMP280;65859;43.020;25.096;2023-05-10T02:44:56;99670.56;;;10.27
76901;BMP280;65859;43.020;25.096;2023-05-10T02:47:24;99664.75;;;10.25
76901;BMP280;65859;43.020;25.096;2023-05-10T02:49:51;99670.66;;;10.14
76901;BMP280;65859;43.020;25.096;2023-05-10T02:52:23;99664.91;;;10.12
76901;BMP280;65859;43.020;25.096;2023-05-10T02:54:52;99664.94;;;9.89
76901;BMP280;65859;43.020;25.096;2023-05-10T02:57:25;99665.63;;;10.04
76901;BMP280;65859;43.020;25.096;2023-05-10T02:59:52;99673.31;;;10.14
76901;BMP280;65859;43.020;25.096;2023-05-10T03:02:19;99663.84;;;9.90
76901;BMP280;65859;43.020;25.096;2023-05-10T03:04:46;99670.38;;;9.84
76901;BMP280;65859;43.020;25.096;2023-05-10T03:07:12;99675.38;;;9.86
76901;BMP280;65859;43.020;25.096;2023-05-10T03:09:39;99668.22;;;9.86
76901;BMP280;65859;43.020;25.096;2023-05-10T03:17:55;99659.78;;;9.93
76901;BMP280;65859;43.020;25.096;2023-05-10T03:20:30;99656.94;;;9.50
76901;BMP280;65859;43.020;25.096;2023-05-10T03:23:04;99662.63;;;9.65
76901;BMP280;65859;43.020;25.096;2023-05-10T03:25:32;99667.81;;;9.70
76901;BMP280;65859;43.020;25.096;2023-05-10T03:28:00;99667.53;;;9.81
76901;BMP280;65859;43.020;25.096;2023-05-10T03:30:29;99668.75;;;9.97
76901;BMP280;65859;43.020;25.096;2023-05-10T03:32:56;99671.72;;;9.73
76901;BMP280;65859;43.020;25.096;2023-05-10T03:35:24;99678.38;;;9.62
76901;BMP280;65859;43.020;25.096;2023-05-10T03:37:50;99680.94;;;9.53
76901;BMP280;65859;43.020;25.096;2023-05-10T03:40:16;99686.22;;;9.76
76901;BMP280;65859;43.020;25.096;2023-05-10T03:42:43;99682.47;;;9.68
76901;BMP280;65859;43.020;25.096;2023-05-10T03:45:09;99684.41;;;9.62
76901;BMP280;65859;43.020;25.096;2023-05-10T03:47:36;99690.56;;;9.71
76901;BMP280;65859;43.020;25.096;2023-05-10T03:50:02;99688.13;;;9.53
76901;BMP280;65859;43.020;25.096;2023-05-10T03:52:29;99690.59;;;9.49
76901;BMP280;65859;43.020;25.096;2023-05-10T03:54:55;99693.69;;;9.73
76901;BMP280;65859;43.020;25.096;2023-05-10T03:57:21;99696.13;;;9.61
76901;BMP280;65859;43.020;25.096;2023-05-10T03:59:48;99695.75;;;9.77
76901;BMP280;65859;43.020;25.096;2023-05-10T04:02:15;99700.69;;;9.69
76901;BMP280;65859;43.020;25.096;2023-05-10T04:04:42;99702.56;;;10.00
76901;BMP280;65859;43.020;25.096;2023-05-10T04:07:08;99706.03;;;9.78
76901;BMP280;65859;43.020;25.096;2023-05-10T04:09:36;99703.22;;;9.97
76901;BMP280;65859;43.020;25.096;2023-05-10T04:12:02;99700.72;;;10.01
76901;BMP280;65859;43.020;25.096;2023-05-10T04:14:29;99708.28;;;10.24
76901;BMP280;65859;43.020;25.096;2023-05-10T04:16:55;99703.09;;;10.11
76901;BMP280;65859;43.020;25.096;2023-05-10T04:19:21;99707.41;;;10.07
76901;BMP280;65859;43.020;25.096;2023-05-10T04:21:48;99705.19;;;10.22
76901;BMP280;65859;43.020;25.096;2023-05-10T04:24:14;99698.88;;;10.10
76901;BMP280;65859;43.020;25.096;2023-05-10T04:26:41;99698.63;;;10.20
76901;BMP280;65859;43.020;25.096;2023-05-10T04:29:07;99693.94;;;10.25
76901;BMP280;65859;43.020;25.096;2023-05-10T04:31:33;99697.69;;;10.33
76901;BMP280;65859;43.020;25.096;2023-05-10T04:34:03;99692.69;;;9.92
76901;BMP280;65859;43.020;25.096;2023-05-10T04:36:30;99686.78;;;10.26
76901;BMP280;65859;43.020;25.096;2023-05-10T04:38:56;99692.38;;;10.24
76901;BMP280;65859;43.020;25.096;2023-05-10T04:41:22;99690.75;;;10.54
76901;BMP280;65859;43.020;25.096;2023-05-10T04:43:49;99689.38;;;10.48
76901;BMP280;65859;43.020;25.096;2023-05-10T04:46:15;99693.06;;;10.39
76901;BMP280;65859;43.020;25.096;2023-05-10T04:48:41;99696.16;;;10.23
76901;BMP280;65859;43.020;25.096;2023-05-10T04:51:08;99701.81;;;10.39
76901;BMP280;65859;43.020;25.096;2023-05-10T04:53:34;99699.03;;;10.53
76901;BMP280;65859;43.020;25.096;2023-05-10T04:56:00;99690.91;;;10.58
76901;BMP280;65859;43.020;25.096;2023-05-10T04:58:27;99693.28;;;10.68
76901;BMP280;65859;43.020;25.096;2023-05-10T05:00:53;99692.72;;;10.89
76901;BMP280;65859;43.020;25.096;2023-05-10T05:03:19;99693.72;;;11.74
76901;BMP280;65859;43.020;25.096;2023-05-10T05:05:47;99695.34;;;11.41
76901;BMP280;65859;43.020;25.096;2023-05-10T05:08:13;99682.72;;;11.29
76901;BMP280;65859;43.020;25.096;2023-05-10T05:10:40;99682.28;;;12.41
76901;BMP280;65859;43.020;25.096;2023-05-10T05:13:06;99689.03;;;11.71
76901;BMP280;65859;43.020;25.096;2023-05-10T05:15:32;99686.50;;;12.42
76901;BMP280;65859;43.020;25.096;2023-05-10T05:17:59;99682.50;;;12.36
76901;BMP280;65859;43.020;25.096;2023-05-10T05:20:25;99683.97;;;11.96
76901;BMP280;65859;43.020;25.096;2023-05-10T05:22:51;99688.16;;;12.26
76901;BMP280;65859;43.020;25.096;2023-05-10T05:25:18;99694.75;;;12.50
76901;BMP280;65859;43.020;25.096;2023-05-10T05:28:05;99688.34;;;12.71
76901;BMP280;65859;43.020;25.096;2023-05-10T05:30:32;99680.34;;;13.46
76901;BMP280;65859;43.020;25.096;2023-05-10T05:32:58;99681.63;;;13.28
76901;BMP280;65859;43.020;25.096;2023-05-10T05:35:24;99673.16;;;13.14
76901;BMP280;65859;43.020;25.096;2023-05-10T05:37:52;99686.47;;;12.93
76901;BMP280;65859;43.020;25.096;2023-05-10T05:40:18;99688.47;;;12.96
76901;BMP280;65859;43.020;25.096;2023-05-10T05:42:46;99684.66;;;13.06
76901;BMP280;65859;43.020;25.096;2023-05-10T05:45:12;99685.84;;;13.08
76901;BMP280;65859;43.020;25.096;2023-05-10T05:47:39;99686.06;;;13.03
76901;BMP280;65859;43.020;25.096;2023-05-10T05:50:06;99693.78;;;12.84
76901;BMP280;65859;43.020;25.096;2023-05-10T05:52:33;99685.31;;;13.02
76901;BMP280;65859;43.020;25.096;2023-05-10T05:54:59;99682.31;;;13.37
76901;BMP280;65859;43.020;25.096;2023-05-10T05:57:26;99684.72;;;13.30
76901;BMP280;65859;43.020;25.096;2023-05-10T05:59:52;99687.09;;;13.31
76901;BMP280;65859;43.020;25.096;2023-05-10T06:02:19;99686.84;;;13.24
76901;BMP280;65859;43.020;25.096;2023-05-10T06:04:45;99687.44;;;13.42
76901;BMP280;65859;43.020;25.096;2023-05-10T06:07:12;99680.53;;;13.41
76901;BMP280;65859;43.020;25.096;2023-05-10T06:09:40;99696.13;;;13.64
76901;BMP280;65859;43.020;25.096;2023-05-10T06:12:06;99700.88;;;14.15
76901;BMP280;65859;43.020;25.096;2023-05-10T06:14:33;99706.09;;;14.12
76901;BMP280;65859;43.020;25.096;2023-05-10T06:16:59;99696.19;;;14.65
76901;BMP280;65859;43.020;25.096;2023-05-10T06:19:26;99698.75;;;15.01
76901;BMP280;65859;43.020;25.096;2023-05-10T06:21:52;99702.00;;;14.67
76901;BMP280;65859;43.020;25.096;2023-05-10T06:24:19;99704.38;;;14.56
76901;BMP280;65859;43.020;25.096;2023-05-10T06:26:45;99704.72;;;14.42
76901;BMP280;65859;43.020;25.096;2023-05-10T06:29:11;99705.28;;;13.87
76901;BMP280;65859;43.020;25.096;2023-05-10T06:31:38;99702.28;;;13.88
76901;BMP280;65859;43.020;25.096;2023-05-10T06:34:04;99700.63;;;14.21
76901;BMP280;65859;43.020;25.096;2023-05-10T06:36:30;99708.50;;;14.17
76901;BMP280;65859;43.020;25.096;2023-05-10T06:38:57;99704.63;;;14.39
76901;BMP280;65859;43.020;25.096;2023-05-10T06:41:24;99703.88;;;14.66
76901;BMP280;65859;43.020;25.096;2023-05-10T06:43:51;99706.47;;;15.19
76901;BMP280;65859;43.020;25.096;2023-05-10T06:46:17;99714.28;;;14.31
76901;BMP280;65859;43.020;25.096;2023-05-10T06:48:43;99705.59;;;14.47
76901;BMP280;65859;43.020;25.096;2023-05-10T06:51:10;99707.63;;;14.78
76901;BMP280;65859;43.020;25.096;2023-05-10T06:53:36;99709.13;;;14.63
76901;BMP280;65859;43.020;25.096;2023-05-10T06:56:03;99705.31;;;15.04
76901;BMP280;65859;43.020;25.096;2023-05-10T06:58:29;99707.94;;;15.32
76901;BMP280;65859;43.020;25.096;2023-05-10T07:01:02;99690.38;;;15.63
76901;BMP280;65859;43.020;25.096;2023-05-10T07:03:29;99703.22;;;16.04
76901;BMP280;65859;43.020;25.096;2023-05-10T07:06:03;99708.97;;;16.41
76901;BMP280;65859;43.020;25.096;2023-05-10T07:08:31;99711.38;;;16.27
76901;BMP280;65859;43.020;25.096;2023-05-10T07:11:05;99709.88;;;15.47
76901;BMP280;65859;43.020;25.096;2023-05-10T07:13:34;99705.38;;;16.34
76901;BMP280;65859;43.020;25.096;2023-05-10T07:16:02;99711.94;;;16.36
76901;BMP280;65859;43.020;25.096;2023-05-10T07:18:29;99718.38;;;16.90
76901;BMP280;65859;43.020;25.096;2023-05-10T07:20:56;99716.09;;;15.51
76901;BMP280;65859;43.020;25.096;2023-05-10T07:23:22;99728.06;;;15.42
76901;BMP280;65859;43.020;25.096;2023-05-10T07:25:50;99721.59;;;16.06
76901;BMP280;65859;43.020;25.096;2023-05-10T07:28:18;99728.50;;;17.42
76901;BMP280;65859;43.020;25.096;2023-05-10T07:30:44;99726.63;;;17.23
76901;BMP280;65859;43.020;25.096;2023-05-10T07:33:11;99714.28;;;16.76
76901;BMP280;65859;43.020;25.096;2023-05-10T07:35:38;99730.38;;;16.76
76901;BMP280;65859;43.020;25.096;2023-05-10T07:38:04;99725.44;;;16.59
76901;BMP280;65859;43.020;25.096;2023-05-10T07:40:31;99718.84;;;16.37
76901;BMP280;65859;43.020;25.096;2023-05-10T07:42:58;99729.31;;;17.23
76901;BMP280;65859;43.020;25.096;2023-05-10T07:45:27;99721.59;;;17.41
76901;BMP280;65859;43.020;25.096;2023-05-10T07:47:54;99717.59;;;17.81
76901;BMP280;65859;43.020;25.096;2023-05-10T07:50:20;99713.69;;;17.71
76901;BMP280;65859;43.020;25.096;2023-05-10T07:52:47;99707.19;;;16.84
76901;BMP280;65859;43.020;25.096;2023-05-10T07:55:14;99700.38;;;16.90
76901;BMP280;65859;43.020;25.096;2023-05-10T07:57:41;99710.31;;;17.09
76901;BMP280;65859;43.020;25.096;2023-05-10T08:00:08;99709.34;;;17.66
76901;BMP280;65859;43.020;25.096;2023-05-10T08:02:35;99705.34;;;16.69
76901;BMP280;65859;43.020;25.096;2023-05-10T08:05:02;99717.72;;;16.38
76901;BMP280;65859;43.020;25.096;2023-05-10T08:07:28;99708.28;;;16.64
76901;BMP280;65859;43.020;25.096;2023-05-10T08:09:55;99713.38;;;17.53
76901;BMP280;65859;43.020;25.096;2023-05-10T08:12:21;99715.03;;;17.61
76901;BMP280;65859;43.020;25.096;2023-05-10T08:14:48;99718.69;;;17.07
76901;BMP280;65859;43.020;25.096;2023-05-10T08:17:15;99708.38;;;16.67
76901;BMP280;65859;43.020;25.096;2023-05-10T08:19:42;99708.16;;;16.76
76901;BMP280;65859;43.020;25.096;2023-05-10T08:22:08;99706.03;;;16.85
76901;BMP280;65859;43.020;25.096;2023-05-10T08:24:34;99714.16;;;17.12
76901;BMP280;65859;43.020;25.096;2023-05-10T08:27:05;99707.84;;;17.00
76901;BMP280;65859;43.020;25.096;2023-05-10T08:29:31;99707.38;;;17.18
76901;BMP280;65859;43.020;25.096;2023-05-10T08:31:57;99703.59;;;18.21
76901;BMP280;65859;43.020;25.096;2023-05-10T08:34:24;99697.63;;;17.78
76901;BMP280;65859;43.020;25.096;2023-05-10T08:36:51;99705.00;;;17.58
76901;BMP280;65859;43.020;25.096;2023-05-10T08:39:17;99707.59;;;17.05
76901;BMP280;65859;43.020;25.096;2023-05-10T08:41:44;99704.09;;;18.00
76901;BMP280;65859;43.020;25.096;2023-05-10T08:44:12;99707.03;;;17.91
76901;BMP280;65859;43.020;25.096;2023-05-10T08:46:41;99718.13;;;19.68
76901;BMP280;65859;43.020;25.096;2023-05-10T08:49:15;99738.59;;;24.60
76901;BMP280;65859;43.020;25.096;2023-05-10T08:51:47;99732.41;;;24.82
76901;BMP280;65859;43.020;25.096;2023-05-10T08:54:15;99726.81;;;22.44
76901;BMP280;65859;43.020;25.096;2023-05-10T08:56:41;99729.81;;;21.55
76901;BMP280;65859;43.020;25.096;2023-05-10T08:59:08;99724.03;;;20.86
76901;BMP280;65859;43.020;25.096;2023-05-10T09:01:36;99726.84;;;19.44
76901;BMP280;65859;43.020;25.096;2023-05-10T09:04:03;99712.84;;;21.48
76901;BMP280;65859;43.020;25.096;2023-05-10T09:06:30;99719.56;;;19.52
76901;BMP280;65859;43.020;25.096;2023-05-10T09:08:58;99691.38;;;22.83
76901;BMP280;65859;43.020;25.096;2023-05-10T09:11:26;99698.53;;;20.62
76901;BMP280;65859;43.020;25.096;2023-05-10T09:13:55;99705.06;;;19.19
76901;BMP280;65859;43.020;25.096;2023-05-10T09:16:23;99700.09;;;21.55
76901;BMP280;65859;43.020;25.096;2023-05-10T09:18:49;99697.59;;;19.46
76901;BMP280;65859;43.020;25.096;2023-05-10T09:21:19;99686.16;;;19.63
76901;BMP280;65859;43.020;25.096;2023-05-10T09:23:46;99687.47;;;17.91
76901;BMP280;65859;43.020;25.096;2023-05-10T09:26:12;99710.69;;;19.47
76901;BMP280;65859;43.020;25.096;2023-05-10T09:28:56;99698.97;;;20.85
76901;BMP280;65859;43.020;25.096;2023-05-10T09:31:23;99693.69;;;20.02
76901;BMP280;65859;43.020;25.096;2023-05-10T09:33:51;99694.09;;;20.04
76901;BMP280;65859;43.020;25.096;2023-05-10T09:36:17;99691.31;;;18.20
76901;BMP280;65859;43.020;25.096;2023-05-10T09:38:50;99689.94;;;18.67
76901;BMP280;65859;43.020;25.096;2023-05-10T09:41:21;99689.19;;;19.03
76901;BMP280;65859;43.020;25.096;2023-05-10T09:43:48;99664.69;;;18.38
76901;BMP280;65859;43.020;25.096;2023-05-10T09:46:16;99679.06;;;18.90
76901;BMP280;65859;43.020;25.096;2023-05-10T09:48:46;99670.16;;;18.48
76901;BMP280;65859;43.020;25.096;2023-05-10T09:51:24;99666.59;;;17.54
76901;BMP280;65859;43.020;25.096;2023-05-10T09:54:10;99667.84;;;17.87
76901;BMP280;65859;43.020;25.096;2023-05-10T09:56:37;99659.38;;;18.45
76901;BMP280;65859;43.020;25.096;2023-05-10T09:59:07;99656.66;;;18.11
76901;BMP280;65859;43.020;25.096;2023-05-10T10:01:34;99657.09;;;18.84
76901;BMP280;65859;43.020;25.096;2023-05-10T10:04:08;99675.84;;;20.73
76901;BMP280;65859;43.020;25.096;2023-05-10T10:06:37;99675.78;;;21.55
76901;BMP280;65859;43.020;25.096;2023-05-10T10:09:04;99710.81;;;24.48
76901;BMP280;65859;43.020;25.096;2023-05-10T10:11:31;99686.19;;;25.29
76901;BMP280;65859;43.020;25.096;2023-05-10T10:13:57;99645.50;;;19.24
76901;BMP280;65859;43.020;25.096;2023-05-10T10:16:25;99655.38;;;19.09
76901;BMP280;65859;43.020;25.096;2023-05-10T10:18:52;99661.38;;;18.21
76901;BMP280;65859;43.020;25.096;2023-05-10T10:21:19;99645.22;;;18.18
76901;BMP280;65859;43.020;25.096;2023-05-10T10:23:46;99645.25;;;18.88
76901;BMP280;65859;43.020;25.096;2023-05-10T10:26:15;99659.00;;;19.31
76901;BMP280;65859;43.020;25.096;2023-05-10T10:29:05;99632.53;;;19.33
76901;BMP280;65859;43.020;25.096;2023-05-10T10:34:29;99640.41;;;18.68
76901;BMP280;65859;43.020;25.096;2023-05-10T10:36:57;99638.53;;;18.35
76901;BMP280;65859;43.020;25.096;2023-05-10T10:39:27;99640.41;;;17.48
76901;BMP280;65859;43.020;25.096;2023-05-10T10:41:57;99642.56;;;17.35
76901;BMP280;65859;43.020;25.096;2023-05-10T10:44:24;99645.69;;;17.67
76901;BMP280;65859;43.020;25.096;2023-05-10T10:49:45;99646.84;;;17.96
76901;BMP280;65859;43.020;25.096;2023-05-10T11:00:31;99658.50;;;19.11
76901;BMP280;65859;43.020;25.096;2023-05-10T11:05:47;99657.50;;;18.15
76901;BMP280;65859;43.020;25.096;2023-05-10T11:13:44;99652.19;;;18.19
76901;BMP280;65859;43.020;25.096;2023-05-10T11:21:22;99650.50;;;19.22
76901;BMP280;65859;43.020;25.096;2023-05-10T11:24:18;99640.88;;;19.83
76901;BMP280;65859;43.020;25.096;2023-05-10T11:26:45;99638.78;;;19.52
76901;BMP280;65859;43.020;25.096;2023-05-10T11:29:13;99634.56;;;20.62
76901;BMP280;65859;43.020;25.096;2023-05-10T11:31:47;99636.47;;;18.58
76901;BMP280;65859;43.020;25.096;2023-05-10T11:34:32;99630.41;;;19.71
76901;BMP280;65859;43.020;25.096;2023-05-10T11:37:01;99636.03;;;19.44
76901;BMP280;65859;43.020;25.096;2023-05-10T11:39:29;99635.75;;;18.61
76901;BMP280;65859;43.020;25.096;2023-05-10T11:41:56;99638.47;;;19.09
76901;BMP280;65859;43.020;25.096;2023-05-10T11:44:23;99632.78;;;18.73
76901;BMP280;65859;43.020;25.096;2023-05-10T11:46:54;99622.06;;;18.80
76901;BMP280;65859;43.020;25.096;2023-05-10T11:49:26;99615.75;;;18.62
76901;BMP280;65859;43.020;25.096;2023-05-10T11:51:52;99618.19;;;19.84
76901;BMP280;65859;43.020;25.096;2023-05-10T11:54:18;99615.38;;;19.59
76901;BMP280;65859;43.020;25.096;2023-05-10T11:56:44;99619.88;;;19.44
76901;BMP280;65859;43.020;25.096;2023-05-10T11:59:13;99612.91;;;19.33
76901;BMP280;65859;43.020;25.096;2023-05-10T12:01:41;99633.34;;;18.90
76901;BMP280;65859;43.020;25.096;2023-05-10T12:04:07;99621.28;;;18.76
76901;BMP280;65859;43.020;25.096;2023-05-10T12:06:39;99612.63;;;18.97
76901;BMP280;65859;43.020;25.096;2023-05-10T12:09:07;99601.50;;;18.58
76901;BMP280;65859;43.020;25.096;2023-05-10T12:11:37;99599.28;;;18.26
76901;BMP280;65859;43.020;25.096;2023-05-10T12:14:05;99600.84;;;18.27
76901;BMP280;65859;43.020;25.096;2023-05-10T12:16:32;99609.19;;;18.97
76901;BMP280;65859;43.020;25.096;2023-05-10T12:19:00;99610.75;;;18.57
76901;BMP280;65859;43.020;25.096;2023-05-10T12:21:28;99611.63;;;19.16
76901;BMP280;65859;43.020;25.096;2023-05-10T12:23:59;99604.66;;;18.26
76901;BMP280;65859;43.020;25.096;2023-05-10T12:26:27;99597.09;;;18.39
76901;BMP280;65859;43.020;25.096;2023-05-10T12:29:12;99592.28;;;18.52
76901;BMP280;65859;43.020;25.096;2023-05-10T12:31:53;99589.09;;;19.38
76901;BMP280;65859;43.020;25.096;2023-05-10T12:34:25;99597.75;;;18.66
76901;BMP280;65859;43.020;25.096;2023-05-10T12:36:55;99586.31;;;18.36
76901;BMP280;65859;43.020;25.096;2023-05-10T12:39:21;99579.59;;;18.52
76901;BMP280;65859;43.020;25.096;2023-05-10T12:41:48;99584.53;;;18.13
76901;BMP280;65859;43.020;25.096;2023-05-10T12:44:15;99568.44;;;19.64
76901;BMP280;65859;43.020;25.096;2023-05-10T12:46:41;99583.50;;;18.62
76901;BMP280;65859;43.020;25.096;2023-05-10T12:49:08;99569.28;;;18.24
76901;BMP280;65859;43.020;25.096;2023-05-10T12:51:34;99566.56;;;18.58
76901;BMP280;65859;43.020;25.096;2023-05-10T12:54:01;99575.66;;;18.43
76901;BMP280;65859;43.020;25.096;2023-05-10T12:56:28;99579.22;;;19.02
76901;BMP280;65859;43.020;25.096;2023-05-10T12:58:54;99576.03;;;18.04
76901;BMP280;65859;43.020;25.096;2023-05-10T13:01:20;99579.09;;;18.84
76901;BMP280;65859;43.020;25.096;2023-05-10T13:03:49;99567.16;;;19.33
76901;BMP280;65859;43.020;25.096;2023-05-10T13:06:17;99579.97;;;19.57
76901;BMP280;65859;43.020;25.096;2023-05-10T13:08:44;99554.81;;;19.35
76901;BMP280;65859;43.020;25.096;2023-05-10T13:11:10;99568.25;;;18.77
76901;BMP280;65859;43.020;25.096;2023-05-10T13:13:36;99550.44;;;19.09
76901;BMP280;65859;43.020;25.096;2023-05-10T13:16:04;99551.94;;;19.62
76901;BMP280;65859;43.020;25.096;2023-05-10T13:18:31;99562.22;;;18.91
76901;BMP280;65859;43.020;25.096;2023-05-10T13:20:57;99568.41;;;18.50
76901;BMP280;65859;43.020;25.096;2023-05-10T13:23:23;99551.13;;;18.48
76901;BMP280;65859;43.020;25.096;2023-05-10T13:25:50;99539.25;;;18.97
76901;BMP280;65859;43.020;25.096;2023-05-10T13:28:16;99539.06;;;18.31
76901;BMP280;65859;43.020;25.096;2023-05-10T13:30:42;99532.03;;;18.60
76901;BMP280;65859;43.020;25.096;2023-05-10T13:33:09;99525.59;;;18.72
76901;BMP280;65859;43.020;25.096;2023-05-10T13:35:36;99517.84;;;19.14
76901;BMP280;65859;43.020;25.096;2023-05-10T13:38:03;99526.06;;;18.84
76901;BMP280;65859;43.020;25.096;2023-05-10T13:40:29;99522.19;;;18.34
76901;BMP280;65859;43.020;25.096;2023-05-10T13:42:56;99517.72;;;18.49
76901;BMP280;65859;43.020;25.096;2023-05-10T13:45:22;99512.34;;;18.49
76901;BMP280;65859;43.020;25.096;2023-05-10T13:47:48;99512.63;;;17.66
76901;BMP280;65859;43.020;25.096;2023-05-10T13:50:15;99502.66;;;18.00
76901;BMP280;65859;43.020;25.096;2023-05-10T13:52:42;99495.16;;;17.79
76901;BMP280;65859;43.020;25.096;2023-05-10T13:55:08;99500.72;;;17.97
76901;BMP280;65859;43.020;25.096;2023-05-10T13:57:34;99502.84;;;18.18
76901;BMP280;65859;43.020;25.096;2023-05-10T14:00:02;99512.47;;;18.19
76901;BMP280;65859;43.020;25.096;2023-05-10T14:02:28;99503.00;;;17.95
76901;BMP280;65859;43.020;25.096;2023-05-10T14:04:55;99513.16;;;18.12
76901;BMP280;65859;43.020;25.096;2023-05-10T14:07:21;99510.13;;;18.17
76901;BMP280;65859;43.020;25.096;2023-05-10T14:09:49;99500.97;;;18.22
76901;BMP280;65859;43.020;25.096;2023-05-10T14:12:15;99502.88;;;17.84
76901;BMP280;65859;43.020;25.096;2023-05-10T14:14:42;99500.91;;;17.81
76901;BMP280;65859;43.020;25.096;2023-05-10T14:17:11;99503.84;;;18.03
76901;BMP280;65859;43.020;25.096;2023-05-10T14:19:37;99505.25;;;17.93
76901;BMP280;65859;43.020;25.096;2023-05-10T14:22:04;99507.69;;;18.05
76901;BMP280;65859;43.020;25.096;2023-05-10T14:24:31;99510.91;;;18.18
76901;BMP280;65859;43.020;25.096;2023-05-10T14:27:00;99509.66;;;18.08
76901;BMP280;65859;43.020;25.096;2023-05-10T14:29:26;99515.25;;;17.96
76901;BMP280;65859;43.020;25.096;2023-05-10T14:31:53;99513.81;;;18.02
76901;BMP280;65859;43.020;25.096;2023-05-10T14:34:19;99512.88;;;17.87
76901;BMP280;65859;43.020;25.096;2023-05-10T14:36:46;99506.13;;;18.01
76901;BMP280;65859;43.020;25.096;2023-05-10T14:39:12;99506.84;;;17.94
76901;BMP280;65859;43.020;25.096;2023-05-10T14:41:40;99504.41;;;17.85
76901;BMP280;65859;43.020;25.096;2023-05-10T14:44:08;99501.16;;;17.69
76901;BMP280;65859;43.020;25.096;2023-05-10T14:46:35;99499.56;;;17.61
76901;BMP280;65859;43.020;25.096;2023-05-10T14:49:02;99511.38;;;17.30
76901;BMP280;65859;43.020;25.096;2023-05-10T14:51:29;99499.22;;;17.36